This is the latest recevied weather packets stored in our database for station/object DD3FC-1. If no packets are shown the sender has not sent any weather packets the latest 1 day(s).
| Time | Temp. | Humidity | Pressure | Rain* | Wind** | Luminosity | Snow |
|---|---|---|---|---|---|---|---|
| 1778097021 | 12.78° C | 91% | 1009.5 hPa | 0 mm | - | - | - |
| 1778083822 | 16.67° C | 68% | 1007.5 hPa | 0 mm | - | - | - |
| 1778083222 | 17.78° C | 58% | 1007.3 hPa | 0 mm | - | - | - |
| 1778082622 | 17.78° C | 55% | 1007.2 hPa | 0 mm | - | - | - |
| 1778082022 | 17.78° C | 56% | 1007.2 hPa | 0 mm | - | - | - |
| 1778081422 | 18.33° C | 55% | 1007.3 hPa | 0 mm | - | - | - |
| 1778080822 | 18.33° C | 55% | 1007.3 hPa | 0 mm | - | - | - |
| 1778080222 | 18.33° C | 56% | 1007.3 hPa | 0 mm | - | - | - |
| 1778079622 | 18.33° C | 54% | 1007.2 hPa | 0 mm | - | - | - |
| 1778079022 | 18.33° C | 55% | 1007.2 hPa | 0 mm | - | - | - |
| 1778078422 | 18.33° C | 56% | 1007.1 hPa | 0 mm | - | - | - |
| 1778077822 | 18.33° C | 56% | 1006.9 hPa | 0 mm | - | - | - |
| 1778077222 | 18.89° C | 54% | 1007 hPa | 0 mm | - | - | - |
| 1778076022 | 18.89° C | 53% | 1007.1 hPa | 0 mm | - | - | - |
| 1778064023 | 18.89° C | 60% | 1007.9 hPa | 0 mm | - | - | - |
| 1778063423 | 18.89° C | 59% | 1007.9 hPa | 0 mm | - | - | - |
| 1778062823 | 19.44° C | 58% | 1008 hPa | 0 mm | - | - | - |
| 1778062223 | 20° C | 54% | 1007.8 hPa | 0 mm | - | - | - |
| 1778061623 | 21.11° C | 54% | 1007.9 hPa | 0 mm | - | - | - |
| 1778061023 | 20.56° C | 56% | 1008 hPa | 0 mm | - | - | - |
| 1778060423 | 19.44° C | 59% | 1008 hPa | 0 mm | - | - | - |
| 1778059823 | 18.33° C | 61% | 1008 hPa | 0 mm | - | - | - |
| 1778059223 | 18.33° C | 61% | 1008 hPa | 0 mm | - | - | - |
| 1778058623 | 18.89° C | 61% | 1007.9 hPa | 0 mm | - | - | - |
| 1778058023 | 18.33° C | 66% | 1007.9 hPa | 0 mm | - | - | - |
* Rain latest hour (hover to see other rain measurements)
** Current wind speed in m/s (hover to see current wind gust speed)